Time;durP1;ratioP1;P1;durP2;ratioP2;P2;SDS_P1;SDS_P2;PMS_P1;PMS_P2;Temp;Humidity;BMP_temperature;BMP_pressure;BME280_temperature;BME280_humidity;BME280_pressure;Samples;Min_cycle;Max_cycle;Signal;HPM_P1;HPM_P2
2021/12/30 07:20:16;;;;;;;2.53;0.82;;;;;;;;;;10145075;29;171907;-72
2021/12/30 07:25:17;;;;;;;8.60;0.90;;;;;;;;;;10543423;27;20030;-71
2021/12/30 07:30:19;;;;;;;3.60;1.25;;;;;;;;;;10640624;27;20038;-70
2021/12/30 07:35:20;;;;;;;5.55;0.90;;;;;;;;;;10682094;27;20027;-70
2021/12/30 07:40:21;;;;;;;5.28;1.27;;;;;;;;;;10682493;27;20167;-70
2021/12/30 07:45:22;;;;;;;2.22;1.20;;;;;;;;;;10682203;27;20037;-69
2021/12/30 07:50:23;;;;;;;4.15;1.00;;;;;;;;;;10664394;27;20042;-69
2021/12/30 07:55:24;;;;;;;3.50;1.02;;;;;;;;;;10655471;27;20071;-69
2021/12/30 08:00:25;;;;;;;5.05;1.23;;;;;;;;;;10649505;27;20034;-69
2021/12/30 08:05:28;;;;;;;8.63;1.10;;;;;;;;;;10658389;27;20441;-69
2021/12/30 08:10:29;;;;;;;7.25;2.88;;;;;;;;;;10639367;27;20031;-69
2021/12/30 08:15:30;;;;;;;145.90;96.43;;;;;;;;;;10637375;27;20172;-73
2021/12/30 08:45:26;;;;;;;106.55;56.70;;;;;;;;;;9842415;30;20052;-72
2021/12/30 08:50:27;;;;;;;86.05;46.25;;;;;;;;;;10263782;28;20041;-71
2021/12/30 08:55:28;;;;;;;82.00;43.03;;;;;;;;;;10371826;28;20041;-65
2021/12/30 09:00:30;;;;;;;76.18;37.60;;;;;;;;;;10367444;28;20049;-66
2021/12/30 09:05:33;;;;;;;56.38;32.20;;;;;;;;;;10408853;28;20176;-65
2021/12/30 09:10:40;;;;;;;58.97;28.88;;;;;;;;;;10397847;28;20396;-65
2021/12/30 09:15:44;;;;;;;45.17;24.00;;;;;;;;;;10377179;28;20080;-64
2021/12/30 09:20:49;;;;;;;44.33;21.95;;;;;;;;;;10524472;27;20042;-66
2021/12/30 09:26:14;;;;;;;30.75;19.63;;;;;;;;;;10611995;27;20386;-67
2021/12/30 09:31:18;;;;;;;33.25;18.55;;;;;;;;;;10625473;27;20099;-65
2021/12/30 09:36:22;;;;;;;27.23;16.38;;;;;;;;;;10607924;27;20037;-66
2021/12/30 09:41:23;;;;;;;25.42;15.23;;;;;;;;;;10613170;27;20099;-65
2021/12/30 09:52:26;;;;;;;27.50;14.52;;;;;;;;;;10436190;22;20049;-66
2021/12/30 09:57:27;;;;;;;43.40;13.60;;;;;;;;;;10399992;28;20062;-66
2021/12/30 10:02:28;;;;;;;36.50;13.75;;;;;;;;;;10420701;28;20048;-71
2021/12/30 10:07:32;;;;;;;22.45;9.07;;;;;;;;;;10414964;28;20086;-66
2021/12/30 10:12:44;;;;;;;21.98;8.63;;;;;;;;;;10423761;28;20052;-68
2021/12/30 10:17:52;;;;;;;17.13;7.07;;;;;;;;;;10432340;28;20112;-65
2021/12/30 10:22:55;;;;;;;16.60;7.15;;;;;;;;;;10450918;28;20036;-65
2021/12/30 10:28:18;;;;;;;15.65;6.78;;;;;;;;;;10442627;28;20034;-66
2021/12/30 10:33:21;;;;;;;14.73;6.00;;;;;;;;;;10433521;28;20476;-66
2021/12/30 10:38:22;;;;;;;33.03;7.93;;;;;;;;;;10434726;28;20087;-73
2021/12/30 10:43:45;;;;;;;32.00;8.02;;;;;;;;;;10415782;28;20045;-71
2021/12/30 10:54:50;;;;;;;19.50;4.70;;;;;;;;;;10124811;29;20056;-70
2021/12/30 10:59:50;;;;;;;34.17;5.97;;;;;;;;;;10383682;28;20061;-71
2021/12/30 11:04:57;;;;;;;30.23;6.07;;;;;;;;;;10435058;28;20049;-73
2021/12/30 11:09:59;;;;;;;17.98;4.80;;;;;;;;;;10435005;28;20029;-72
2021/12/30 11:15:05;;;;;;;20.63;4.45;;;;;;;;;;10418839;28;20029;-70
2021/12/30 11:20:08;;;;;;;21.17;4.15;;;;;;;;;;10434579;28;20029;-71
2021/12/30 11:25:12;;;;;;;30.27;4.35;;;;;;;;;;10436370;28;20037;-72
2021/12/30 11:30:15;;;;;;;20.55;5.15;;;;;;;;;;10435655;28;20033;-72
2021/12/30 11:35:22;;;;;;;39.03;5.88;;;;;;;;;;10434128;28;20526;-71
2021/12/30 11:40:25;;;;;;;22.45;5.55;;;;;;;;;;10434868;28;20536;-71
2021/12/30 11:45:39;;;;;;;24.23;6.00;;;;;;;;;;10433760;28;20065;-72
2021/12/30 11:50:40;;;;;;;29.20;5.78;;;;;;;;;;10410314;28;20033;-71
2021/12/30 12:08:03;;;;;;;16.42;3.92;;;;;;;;;;10271286;28;20066;-72
2021/12/30 12:13:31;;;;;;;12.75;4.07;;;;;;;;;;10415521;28;20060;-72
2021/12/30 12:18:32;;;;;;;;;;;;;;;;;;10441765;28;20061;-71
2021/12/30 12:23:36;;;;;;;6.73;2.87;;;;;;;;;;10481241;28;19937;-71
2021/12/30 12:28:38;;;;;;;12.85;2.72;;;;;;;;;;10423459;28;20450;-71
2021/12/30 12:33:41;;;;;;;12.02;2.58;;;;;;;;;;10430318;28;20824;-71
2021/12/30 12:38:45;;;;;;;10.23;2.30;;;;;;;;;;10426663;28;20029;-72
2021/12/30 12:44:01;;;;;;;14.20;2.95;;;;;;;;;;10435064;28;20120;-72
2021/12/30 12:49:06;;;;;;;5.60;2.50;;;;;;;;;;10411050;28;20496;-71
2021/12/30 12:54:06;;;;;;;15.27;3.33;;;;;;;;;;10418995;28;20056;-71
2021/12/30 12:59:13;;;;;;;8.60;2.42;;;;;;;;;;10434601;28;20124;-70
2021/12/30 13:16:26;;;;;;;6.85;2.00;;;;;;;;;;9969840;29;20072;-72
2021/12/30 13:21:26;;;;;;;12.98;2.78;;;;;;;;;;10286982;28;20076;-72
2021/12/30 13:26:36;;;;;;;17.58;2.60;;;;;;;;;;10346526;28;20038;-69
2021/12/30 13:31:37;;;;;;;19.65;2.88;;;;;;;;;;10350621;28;20093;-70
2021/12/30 13:36:37;;;;;;;23.83;3.53;;;;;;;;;;10523340;22;20100;-70
2021/12/30 13:41:50;;;;;;;26.98;4.38;;;;;;;;;;10435404;28;20037;-71
2021/12/30 13:46:50;;;;;;;23.15;3.13;;;;;;;;;;10407740;28;20033;-71
2021/12/30 13:51:51;;;;;;;17.50;3.42;;;;;;;;;;10452866;28;20041;-72
2021/12/30 13:56:51;;;;;;;14.32;3.95;;;;;;;;;;10410881;28;20029;-73
2021/12/30 14:01:52;;;;;;;25.92;3.90;;;;;;;;;;10415854;28;20083;-72
2021/12/30 14:06:58;;;;;;;15.30;3.17;;;;;;;;;;10437348;28;20037;-72
2021/12/30 14:12:09;;;;;;;6.07;2.47;;;;;;;;;;10445551;28;20040;-72
2021/12/30 14:17:11;;;;;;;7.30;2.38;;;;;;;;;;10413842;28;20052;-72
2021/12/30 14:22:11;;;;;;;9.85;2.58;;;;;;;;;;10452115;28;20033;-72
2021/12/30 14:27:20;;;;;;;11.82;2.97;;;;;;;;;;10460643;28;20025;-72
2021/12/30 14:32:23;;;;;;;;;;;;;;;;;;10402063;28;20028;-72
2021/12/30 14:38:04;;;;;;;7.03;3.10;;;;;;;;;;10344577;28;20209;-72
2021/12/30 14:43:06;;;;;;;7.32;2.63;;;;;;;;;;10321227;28;20046;-72
2021/12/30 14:48:10;;;;;;;6.18;2.65;;;;;;;;;;10329262;28;20057;-73
2021/12/30 14:53:16;;;;;;;9.65;3.30;;;;;;;;;;10366046;28;20040;-72
2021/12/30 14:58:17;;;;;;;14.18;2.75;;;;;;;;;;10327367;28;20030;-73
2021/12/30 15:03:18;;;;;;;22.60;3.05;;;;;;;;;;10362636;28;20834;-72
2021/12/30 15:08:19;;;;;;;10.13;1.98;;;;;;;;;;10331147;28;20132;-72
2021/12/30 15:13:19;;;;;;;13.70;3.15;;;;;;;;;;10320233;28;20111;-72
2021/12/30 15:18:21;;;;;;;8.82;2.60;;;;;;;;;;10332400;28;20899;-71
2021/12/30 15:23:21;;;;;;;12.00;2.80;;;;;;;;;;10305758;28;20032;-72
2021/12/30 15:28:22;;;;;;;14.05;2.30;;;;;;;;;;10351479;28;20838;-72
2021/12/30 15:33:23;;;;;;;13.73;2.88;;;;;;;;;;10337739;28;20033;-70
2021/12/30 15:56:52;;;;;;;10.15;2.55;;;;;;;;;;9732052;30;20052;-72
2021/12/30 16:01:55;;;;;;;13.55;2.53;;;;;;;;;;10079426;28;20166;-72
2021/12/30 16:06:55;;;;;;;14.30;4.00;;;;;;;;;;10207477;28;20919;-71
2021/12/30 16:11:58;;;;;;;15.98;6.47;;;;;;;;;;10209161;28;20808;-70
2021/12/30 16:16:58;;;;;;;26.08;5.85;;;;;;;;;;10191339;28;20038;-71
2021/12/30 16:27:33;;;;;;;28.15;4.95;;;;;;;;;;10414685;23;20046;-72
2021/12/30 17:44:16;;;;;;;14.50;4.10;;;;;;;;;;11032981;22;20112;-74
2021/12/30 17:53:54;;;;;;;9.75;3.70;;;;;;;;;;10325590;22;20716;-72
2021/12/30 17:58:58;;;;;;;11.65;3.47;;;;;;;;;;10435942;28;20059;-71
2021/12/30 18:04:01;;;;;;;14.02;3.55;;;;;;;;;;10435570;28;20030;-72
2021/12/30 18:09:10;;;;;;;13.63;3.30;;;;;;;;;;10300215;28;20050;-72
2021/12/30 18:14:10;;;;;;;;;;;;;;;;;;10322789;28;20034;-73
2021/12/30 18:19:11;;;;;;;15.70;3.27;;;;;;;;;;10367704;28;19918;-72
2021/12/30 18:24:12;;;;;;;17.30;3.13;;;;;;;;;;10312628;28;20559;-72
2021/12/30 18:29:13;;;;;;;7.10;3.17;;;;;;;;;;10321863;28;20027;-73
2021/12/30 18:34:13;;;;;;;13.35;3.33;;;;;;;;;;10268644;28;20034;-73
2021/12/30 18:39:14;;;;;;;23.63;4.05;;;;;;;;;;10280887;28;20133;-73
2021/12/30 19:19:34;;;;;;;7.22;1.63;;;;;;;;;;10261406;28;93226;-72
2021/12/30 19:24:35;;;;;;;11.35;1.70;;;;;;;;;;10537945;28;20047;-71
2021/12/30 19:29:36;;;;;;;20.52;2.00;;;;;;;;;;10628339;27;20035;-70
2021/12/30 19:34:37;;;;;;;10.48;1.83;;;;;;;;;;10574660;28;20035;-72
2021/12/30 19:39:38;;;;;;;21.17;2.10;;;;;;;;;;10595010;27;20357;-71
2021/12/30 19:44:38;;;;;;;8.40;1.83;;;;;;;;;;10483227;28;20032;-71
2021/12/30 19:49:39;;;;;;;10.00;1.88;;;;;;;;;;10493048;28;20486;-69
2021/12/30 19:54:40;;;;;;;12.95;1.60;;;;;;;;;;10497120;28;20360;-71
2021/12/30 19:59:41;;;;;;;7.85;2.03;;;;;;;;;;10519379;28;20399;-70
2021/12/30 20:04:43;;;;;;;8.90;1.85;;;;;;;;;;10493349;28;20081;-70
2021/12/30 20:09:44;;;;;;;9.40;1.77;;;;;;;;;;10508245;28;20048;-70
2021/12/30 20:14:47;;;;;;;10.70;1.30;;;;;;;;;;10507019;28;20070;-70
2021/12/30 22:26:38;;;;;;;5.20;0.95;;;;;;;;;;10714526;27;20141;-75
2021/12/30 22:31:57;;;;;;;10.90;1.40;;;;;;;;;;10565684;27;20139;-75
2021/12/30 22:36:58;;;;;;;19.50;1.88;;;;;;;;;;10531990;28;20035;-73
2021/12/30 22:41:58;;;;;;;15.43;1.45;;;;;;;;;;10532639;28;20036;-72
2021/12/30 22:46:59;;;;;;;20.15;1.75;;;;;;;;;;10525814;28;20059;-73
2021/12/30 22:52:00;;;;;;;18.58;1.65;;;;;;;;;;10533123;28;20046;-74
2021/12/30 22:57:01;;;;;;;15.02;1.50;;;;;;;;;;10532310;28;20028;-72
2021/12/30 23:02:02;;;;;;;7.85;1.33;;;;;;;;;;10536668;28;20024;-73
2021/12/30 23:07:02;;;;;;;13.77;2.25;;;;;;;;;;10510652;28;20028;-72
2021/12/30 23:12:04;;;;;;;12.52;1.42;;;;;;;;;;10520101;28;20127;-72
2021/12/30 23:17:05;;;;;;;18.05;1.42;;;;;;;;;;10523508;28;20036;-72
2021/12/30 23:22:05;;;;;;;10.18;1.42;;;;;;;;;;10540879;28;20110;-71
2021/12/30 23:33:07;;;;;;;5.78;0.98;;;;;;;;;;10230770;28;20056;-72
2021/12/30 23:38:17;;;;;;;4.90;1.20;;;;;;;;;;10502338;22;20045;-77
2021/12/30 23:43:18;;;;;;;4.47;1.00;;;;;;;;;;10371897;28;20053;-74
2021/12/30 23:48:18;;;;;;;11.20;1.45;;;;;;;;;;10395565;28;20071;-74
2021/12/30 23:53:19;;;;;;;5.85;0.70;;;;;;;;;;10391446;28;20144;-74
2021/12/30 23:58:19;;;;;;;10.82;1.33;;;;;;;;;;10394384;28;20094;-76
